Fv_bara_lodenn — FPFS — position and weather

sailwx.info

Track history (hours):
 
Tides and Currents Weather Stations Pressure Air Temp Water Temp Dewpoint Dewpoint Depression Visibility Wind Speed Wind Dir Waves Ship Positions

Fv_bara_lodenn

Last reported at 2017-Dec-23 05:25 UTC. Time now 2018-Jan-20 15:34 UTC.
Position N 47°41' W 004°35'.
Warning: this ship's position is 28 days out of date.

Length 24 m.

Type: Fishing. MMSI: 227145700.

Date/timePositionNaut miles runAvg speedWind from/ knotsBaromVisibWave heightAir tempDewpointWater temp
2017-Dec-23 05:25N 47°41' W 004°35'5 8.3
2017-Dec-23 04:47N 47°38' W 004°42'7 8.5
2017-Dec-23 04:01N 47°35' W 004°51'  
2017-Dec-20 13:57N 47°55' W 007°21'11 2.4
2017-Dec-20 09:11N 47°56' W 007°38'5 0.2
2017-Dec-19 07:34N 47°58' W 007°44'2 2.4
2017-Dec-19 06:39N 47°59' W 007°41'0 3.0
2017-Dec-19 06:31N 47°59' W 007°41'2 2.1
2017-Dec-19 05:35N 48°01' W 007°44'0 2.9
2017-Dec-19 05:30N 48°00' W 007°44'2 3.0
2017-Dec-19 04:53N 47°59' W 007°46'1 3.0
2017-Dec-19 04:26N 47°58' W 007°47'3 0.5
2017-Dec-18 23:13N 48°00' W 007°44'1 2.6
2017-Dec-18 22:57N 47°60' W 007°45'1 2.5
2017-Dec-18 22:25N 47°59' W 007°47'  
2017-Dec-16 15:06N 47°42' W 005°11'210.3
2017-Dec-16 14:57N 47°43' W 005°08'4 7.7
2017-Dec-16 14:29N 47°43' W 005°03'6 8.5
2017-Dec-16 13:45N 47°44' W 004°54'3 8.4
2017-Dec-16 13:23N 47°44' W 004°49'3 8.6
2017-Dec-16 13:00N 47°44' W 004°44'4 8.6
2017-Dec-16 12:30N 47°45' W 004°38'4 8.7
2017-Dec-16 12:00N 47°45' W 004°31'5 8.7
2017-Dec-16 11:28N 47°46' W 004°24'4 8.8
2017-Dec-16 11:00N 47°47' W 004°19'2 0.0
2017-Dec-14 15:33N 47°48' W 004°17'11 0.3
2017-Dec-13 06:22N 47°50' W 004°33'3 8.2
2017-Dec-13 06:00N 47°51' W 004°37'4 8.8
2017-Dec-13 05:30N 47°53' W 004°43'  
Track history (hours):
 
Tides and Currents Weather Stations Pressure Air Temp Water Temp Dewpoint Dewpoint Depression Visibility Wind Speed Wind Dir Waves Ship Positions

Fv_bara_lodenn

Last reported at 2017-Dec-23 05:25 UTC. Time now 2018-Jan-20 15:34 UTC.
Position N 47°41' W 004°35'.
Warning: this ship's position is 28 days out of date.

Length 24 m.

Type: Fishing. MMSI: 227145700.

Date/timePositionNaut miles runAvg speedWind from/ knotsBaromVisibWave heightAir tempDewpointWater temp
2017-Dec-23 05:25N 47°41' W 004°35'5 8.3
2017-Dec-23 04:47N 47°38' W 004°42'7 8.5
2017-Dec-23 04:01N 47°35' W 004°51'  
2017-Dec-20 13:57N 47°55' W 007°21'11 2.4
2017-Dec-20 09:11N 47°56' W 007°38'5 0.2
2017-Dec-19 07:34N 47°58' W 007°44'2 2.4
2017-Dec-19 06:39N 47°59' W 007°41'0 3.0
2017-Dec-19 06:31N 47°59' W 007°41'2 2.1
2017-Dec-19 05:35N 48°01' W 007°44'0 2.9
2017-Dec-19 05:30N 48°00' W 007°44'2 3.0
2017-Dec-19 04:53N 47°59' W 007°46'1 3.0
2017-Dec-19 04:26N 47°58' W 007°47'3 0.5
2017-Dec-18 23:13N 48°00' W 007°44'1 2.6
2017-Dec-18 22:57N 47°60' W 007°45'1 2.5
2017-Dec-18 22:25N 47°59' W 007°47'  
2017-Dec-16 15:06N 47°42' W 005°11'210.3
2017-Dec-16 14:57N 47°43' W 005°08'4 7.7
2017-Dec-16 14:29N 47°43' W 005°03'6 8.5
2017-Dec-16 13:45N 47°44' W 004°54'3 8.4
2017-Dec-16 13:23N 47°44' W 004°49'3 8.6
2017-Dec-16 13:00N 47°44' W 004°44'4 8.6
2017-Dec-16 12:30N 47°45' W 004°38'4 8.7
2017-Dec-16 12:00N 47°45' W 004°31'5 8.7
2017-Dec-16 11:28N 47°46' W 004°24'4 8.8
2017-Dec-16 11:00N 47°47' W 004°19'2 0.0
2017-Dec-14 15:33N 47°48' W 004°17'11 0.3
2017-Dec-13 06:22N 47°50' W 004°33'3 8.2
2017-Dec-13 06:00N 47°51' W 004°37'4 8.8
2017-Dec-13 05:30N 47°53' W 004°43'  

Dump ship's entire track history